sensor_id;sensor_type;location;lat;lon;timestamp;temperature;humidity
9666;DHT22;4871;52.004;5.924;2023-08-08T00:00:00;15.8;74.8
9666;DHT22;4871;52.004;5.924;2023-08-08T00:01:00;15.8;74.5
9666;DHT22;4871;52.004;5.924;2023-08-08T00:02:07;15.8;74.5
9666;DHT22;4871;52.004;5.924;2023-08-08T00:03:00;15.8;74.5
9666;DHT22;4871;52.004;5.924;2023-08-08T00:04:07;15.8;74.9
9666;DHT22;4871;52.004;5.924;2023-08-08T00:05:00;15.8;74.9
9666;DHT22;4871;52.004;5.924;2023-08-08T00:06:07;15.7;74.6
9666;DHT22;4871;52.004;5.924;2023-08-08T00:07:00;15.7;74.6
9666;DHT22;4871;52.004;5.924;2023-08-08T00:08:07;15.7;74.7
9666;DHT22;4871;52.004;5.924;2023-08-08T00:09:00;15.7;74.7
9666;DHT22;4871;52.004;5.924;2023-08-08T00:10:07;15.7;74.5
9666;DHT22;4871;52.004;5.924;2023-08-08T00:11:00;15.7;74.5
9666;DHT22;4871;52.004;5.924;2023-08-08T00:12:07;15.7;74.7
9666;DHT22;4871;52.004;5.924;2023-08-08T00:13:00;15.7;74.7
9666;DHT22;4871;52.004;5.924;2023-08-08T00:14:00;15.7;74.9
9666;DHT22;4871;52.004;5.924;2023-08-08T00:15:00;15.6;74.7
9666;DHT22;4871;52.004;5.924;2023-08-08T00:16:05;15.7;74.8
9666;DHT22;4871;52.004;5.924;2023-08-08T00:17:00;15.7;74.8
9666;DHT22;4871;52.004;5.924;2023-08-08T00:18:00;15.7;74.8
9666;DHT22;4871;52.004;5.924;2023-08-08T00:19:00;15.7;74.7
9666;DHT22;4871;52.004;5.924;2023-08-08T00:20:00;15.6;74.8
9666;DHT22;4871;52.004;5.924;2023-08-08T00:21:00;15.6;74.9
9666;DHT22;4871;52.004;5.924;2023-08-08T00:22:00;15.6;74.8
9666;DHT22;4871;52.004;5.924;2023-08-08T00:23:00;15.6;74.9
9666;DHT22;4871;52.004;5.924;2023-08-08T00:24:00;15.7;75.0
9666;DHT22;4871;52.004;5.924;2023-08-08T00:25:00;15.6;74.7
9666;DHT22;4871;52.004;5.924;2023-08-08T00:26:00;15.6;74.9
9666;DHT22;4871;52.004;5.924;2023-08-08T00:27:00;15.6;75.0
9666;DHT22;4871;52.004;5.924;2023-08-08T00:28:00;15.6;74.8
9666;DHT22;4871;52.004;5.924;2023-08-08T00:29:00;15.6;74.8
9666;DHT22;4871;52.004;5.924;2023-08-08T00:30:07;15.6;74.8
9666;DHT22;4871;52.004;5.924;2023-08-08T00:31:00;15.6;74.8
9666;DHT22;4871;52.004;5.924;2023-08-08T00:32:00;15.6;74.8
9666;DHT22;4871;52.004;5.924;2023-08-08T00:33:00;15.6;74.9
9666;DHT22;4871;52.004;5.924;2023-08-08T00:34:00;15.6;75.0
9666;DHT22;4871;52.004;5.924;2023-08-08T00:35:00;15.6;75.1
9666;DHT22;4871;52.004;5.924;2023-08-08T00:36:00;15.6;75.0
9666;DHT22;4871;52.004;5.924;2023-08-08T00:37:00;15.6;74.9
9666;DHT22;4871;52.004;5.924;2023-08-08T00:38:00;15.6;74.8
9666;DHT22;4871;52.004;5.924;2023-08-08T00:39:00;15.6;74.9
9666;DHT22;4871;52.004;5.924;2023-08-08T00:40:07;15.6;74.9
9666;DHT22;4871;52.004;5.924;2023-08-08T00:41:00;15.6;74.9
9666;DHT22;4871;52.004;5.924;2023-08-08T00:42:00;15.6;74.9
9666;DHT22;4871;52.004;5.924;2023-08-08T00:43:00;15.6;75.0
9666;DHT22;4871;52.004;5.924;2023-08-08T00:44:00;15.6;74.8
9666;DHT22;4871;52.004;5.924;2023-08-08T00:45:04;15.6;75.0
9666;DHT22;4871;52.004;5.924;2023-08-08T00:46:00;15.6;75.0
9666;DHT22;4871;52.004;5.924;2023-08-08T00:47:00;15.6;74.9
9666;DHT22;4871;52.004;5.924;2023-08-08T00:48:07;15.6;74.9
9666;DHT22;4871;52.004;5.924;2023-08-08T00:49:00;15.6;74.9
9666;DHT22;4871;52.004;5.924;2023-08-08T00:50:00;15.6;74.9
9666;DHT22;4871;52.004;5.924;2023-08-08T00:51:00;15.6;74.9
9666;DHT22;4871;52.004;5.924;2023-08-08T00:52:00;15.6;74.9
9666;DHT22;4871;52.004;5.924;2023-08-08T00:53:00;15.6;75.0
9666;DHT22;4871;52.004;5.924;2023-08-08T00:54:00;15.6;74.9
9666;DHT22;4871;52.004;5.924;2023-08-08T00:55:01;15.6;75.1
9666;DHT22;4871;52.004;5.924;2023-08-08T00:56:00;15.6;75.1
9666;DHT22;4871;52.004;5.924;2023-08-08T00:57:00;15.5;74.9
9666;DHT22;4871;52.004;5.924;2023-08-08T00:58:00;15.6;75.1
9666;DHT22;4871;52.004;5.924;2023-08-08T00:59:00;15.6;75.1
9666;DHT22;4871;52.004;5.924;2023-08-08T01:00:00;15.6;74.9
9666;DHT22;4871;52.004;5.924;2023-08-08T01:01:00;15.6;74.8
9666;DHT22;4871;52.004;5.924;2023-08-08T01:02:00;15.6;74.9
9666;DHT22;4871;52.004;5.924;2023-08-08T01:03:00;15.6;74.9
9666;DHT22;4871;52.004;5.924;2023-08-08T01:04:00;15.6;74.9
9666;DHT22;4871;52.004;5.924;2023-08-08T01:05:00;15.6;74.9
9666;DHT22;4871;52.004;5.924;2023-08-08T01:06:12;15.6;75.0
9666;DHT22;4871;52.004;5.924;2023-08-08T01:07:06;15.6;75.0
9666;DHT22;4871;52.004;5.924;2023-08-08T01:08:07;15.6;74.9
9666;DHT22;4871;52.004;5.924;2023-08-08T01:09:05;15.6;75.1
9666;DHT22;4871;52.004;5.924;2023-08-08T01:10:09;15.6;74.8
9666;DHT22;4871;52.004;5.924;2023-08-08T01:11:01;15.6;75.0
9666;DHT22;4871;52.004;5.924;2023-08-08T01:12:08;15.6;74.9
9666;DHT22;4871;52.004;5.924;2023-08-08T01:13:04;15.6;75.0
9666;DHT22;4871;52.004;5.924;2023-08-08T01:14:08;15.6;74.8
9666;DHT22;4871;52.004;5.924;2023-08-08T01:15:00;15.6;74.8
9666;DHT22;4871;52.004;5.924;2023-08-08T01:16:08;15.6;75.0
9666;DHT22;4871;52.004;5.924;2023-08-08T01:17:00;15.6;75.0
9666;DHT22;4871;52.004;5.924;2023-08-08T01:18:00;15.5;75.2
9666;DHT22;4871;52.004;5.924;2023-08-08T01:19:00;15.6;75.0
9666;DHT22;4871;52.004;5.924;2023-08-08T01:20:00;15.6;75.0
9666;DHT22;4871;52.004;5.924;2023-08-08T01:21:01;15.6;75.1
9666;DHT22;4871;52.004;5.924;2023-08-08T01:22:02;15.5;75.1
9666;DHT22;4871;52.004;5.924;2023-08-08T01:23:08;15.5;75.2
9666;DHT22;4871;52.004;5.924;2023-08-08T01:24:17;15.5;75.1
9666;DHT22;4871;52.004;5.924;2023-08-08T01:25:00;15.5;75.1
9666;DHT22;4871;52.004;5.924;2023-08-08T01:26:07;15.5;75.2
9666;DHT22;4871;52.004;5.924;2023-08-08T01:27:00;15.5;75.2
9666;DHT22;4871;52.004;5.924;2023-08-08T01:28:00;15.5;75.4
9666;DHT22;4871;52.004;5.924;2023-08-08T01:29:00;15.5;75.2
9666;DHT22;4871;52.004;5.924;2023-08-08T01:30:00;15.5;75.4
9666;DHT22;4871;52.004;5.924;2023-08-08T01:31:00;15.5;75.3
9666;DHT22;4871;52.004;5.924;2023-08-08T01:32:00;15.5;75.4
9666;DHT22;4871;52.004;5.924;2023-08-08T01:33:00;15.5;75.5
9666;DHT22;4871;52.004;5.924;2023-08-08T01:34:07;15.5;75.3
9666;DHT22;4871;52.004;5.924;2023-08-08T01:35:00;15.5;75.3
9666;DHT22;4871;52.004;5.924;2023-08-08T01:36:10;15.5;75.3
9666;DHT22;4871;52.004;5.924;2023-08-08T01:37:05;15.6;75.2
9666;DHT22;4871;52.004;5.924;2023-08-08T01:38:09;15.6;75.3
9666;DHT22;4871;52.004;5.924;2023-08-08T01:39:06;15.5;75.1
9666;DHT22;4871;52.004;5.924;2023-08-08T01:40:00;15.5;75.1
9666;DHT22;4871;52.004;5.924;2023-08-08T01:41:01;15.5;75.3
9666;DHT22;4871;52.004;5.924;2023-08-08T01:42:00;15.6;75.2
9666;DHT22;4871;52.004;5.924;2023-08-08T01:43:00;15.6;75.2
9666;DHT22;4871;52.004;5.924;2023-08-08T01:44:08;15.6;75.1
9666;DHT22;4871;52.004;5.924;2023-08-08T01:45:00;15.5;75.1
9666;DHT22;4871;52.004;5.924;2023-08-08T01:46:00;15.5;75.3
9666;DHT22;4871;52.004;5.924;2023-08-08T01:47:00;15.5;75.0
9666;DHT22;4871;52.004;5.924;2023-08-08T01:48:08;15.5;75.0
9666;DHT22;4871;52.004;5.924;2023-08-08T01:49:00;15.5;75.0
9666;DHT22;4871;52.004;5.924;2023-08-08T01:50:00;15.5;75.2
9666;DHT22;4871;52.004;5.924;2023-08-08T01:51:00;15.5;75.3
9666;DHT22;4871;52.004;5.924;2023-08-08T01:52:00;15.5;75.3
9666;DHT22;4871;52.004;5.924;2023-08-08T01:53:00;15.5;75.3
9666;DHT22;4871;52.004;5.924;2023-08-08T01:54:07;15.5;75.2
9666;DHT22;4871;52.004;5.924;2023-08-08T01:55:00;15.5;75.2
9666;DHT22;4871;52.004;5.924;2023-08-08T01:56:07;15.5;75.2
9666;DHT22;4871;52.004;5.924;2023-08-08T01:57:00;15.5;75.2
9666;DHT22;4871;52.004;5.924;2023-08-08T01:58:00;15.5;75.3
9666;DHT22;4871;52.004;5.924;2023-08-08T01:59:00;15.5;75.4
9666;DHT22;4871;52.004;5.924;2023-08-08T02:00:00;15.4;75.1
9666;DHT22;4871;52.004;5.924;2023-08-08T02:01:00;15.5;75.3
9666;DHT22;4871;52.004;5.924;2023-08-08T02:02:00;15.4;75.1
9666;DHT22;4871;52.004;5.924;2023-08-08T02:03:00;15.4;75.1
9666;DHT22;4871;52.004;5.924;2023-08-08T02:04:00;15.4;75.3
9666;DHT22;4871;52.004;5.924;2023-08-08T02:05:00;15.5;75.4
9666;DHT22;4871;52.004;5.924;2023-08-08T02:06:00;15.4;75.4
9666;DHT22;4871;52.004;5.924;2023-08-08T02:07:00;15.4;75.4
9666;DHT22;4871;52.004;5.924;2023-08-08T02:08:00;15.4;75.2
9666;DHT22;4871;52.004;5.924;2023-08-08T02:09:00;15.4;75.4
9666;DHT22;4871;52.004;5.924;2023-08-08T02:10:00;15.4;75.4
9666;DHT22;4871;52.004;5.924;2023-08-08T02:11:00;15.4;75.2
9666;DHT22;4871;52.004;5.924;2023-08-08T02:12:07;15.4;75.1
9666;DHT22;4871;52.004;5.924;2023-08-08T02:13:00;15.4;75.1
9666;DHT22;4871;52.004;5.924;2023-08-08T02:14:00;15.4;75.3
9666;DHT22;4871;52.004;5.924;2023-08-08T02:15:00;15.4;75.3
9666;DHT22;4871;52.004;5.924;2023-08-08T02:16:00;15.4;75.4
9666;DHT22;4871;52.004;5.924;2023-08-08T02:17:00;15.4;75.3
9666;DHT22;4871;52.004;5.924;2023-08-08T02:18:00;15.4;75.2
9666;DHT22;4871;52.004;5.924;2023-08-08T02:19:00;15.4;75.6
9666;DHT22;4871;52.004;5.924;2023-08-08T02:20:00;15.4;75.5
9666;DHT22;4871;52.004;5.924;2023-08-08T02:21:00;15.4;75.5
9666;DHT22;4871;52.004;5.924;2023-08-08T02:22:00;15.4;75.4
9666;DHT22;4871;52.004;5.924;2023-08-08T02:23:00;15.4;75.3
9666;DHT22;4871;52.004;5.924;2023-08-08T02:24:00;15.4;75.3
9666;DHT22;4871;52.004;5.924;2023-08-08T02:25:00;15.4;75.5
9666;DHT22;4871;52.004;5.924;2023-08-08T02:26:00;15.4;75.4
9666;DHT22;4871;52.004;5.924;2023-08-08T02:27:00;15.4;75.4
9666;DHT22;4871;52.004;5.924;2023-08-08T02:28:00;15.4;75.5
9666;DHT22;4871;52.004;5.924;2023-08-08T02:29:00;15.4;75.4
9666;DHT22;4871;52.004;5.924;2023-08-08T02:30:00;15.4;75.5
9666;DHT22;4871;52.004;5.924;2023-08-08T02:31:00;15.4;75.4
9666;DHT22;4871;52.004;5.924;2023-08-08T02:32:00;15.4;75.5
9666;DHT22;4871;52.004;5.924;2023-08-08T02:33:00;15.4;75.5
9666;DHT22;4871;52.004;5.924;2023-08-08T02:34:00;15.3;75.5
9666;DHT22;4871;52.004;5.924;2023-08-08T02:35:00;15.4;75.5
9666;DHT22;4871;52.004;5.924;2023-08-08T02:36:00;15.4;75.5
9666;DHT22;4871;52.004;5.924;2023-08-08T02:37:00;15.4;75.5
9666;DHT22;4871;52.004;5.924;2023-08-08T02:38:00;15.4;75.5
9666;DHT22;4871;52.004;5.924;2023-08-08T02:39:00;15.3;75.4
9666;DHT22;4871;52.004;5.924;2023-08-08T02:40:00;15.3;75.5
9666;DHT22;4871;52.004;5.924;2023-08-08T02:41:00;15.3;75.6
9666;DHT22;4871;52.004;5.924;2023-08-08T02:42:07;15.3;75.4
9666;DHT22;4871;52.004;5.924;2023-08-08T02:43:00;15.3;75.4
9666;DHT22;4871;52.004;5.924;2023-08-08T02:44:00;15.3;75.3
9666;DHT22;4871;52.004;5.924;2023-08-08T02:45:00;15.3;75.6
9666;DHT22;4871;52.004;5.924;2023-08-08T02:46:00;15.3;75.5
9666;DHT22;4871;52.004;5.924;2023-08-08T02:47:00;15.3;75.4
9666;DHT22;4871;52.004;5.924;2023-08-08T02:48:00;15.3;75.3
9666;DHT22;4871;52.004;5.924;2023-08-08T02:49:00;15.3;75.6
9666;DHT22;4871;52.004;5.924;2023-08-08T02:50:07;15.3;75.6
9666;DHT22;4871;52.004;5.924;2023-08-08T02:51:00;15.3;75.6
9666;DHT22;4871;52.004;5.924;2023-08-08T02:52:00;15.3;75.6
9666;DHT22;4871;52.004;5.924;2023-08-08T02:53:00;15.3;75.7
9666;DHT22;4871;52.004;5.924;2023-08-08T02:54:00;15.3;75.6
9666;DHT22;4871;52.004;5.924;2023-08-08T02:55:02;15.2;75.6
9666;DHT22;4871;52.004;5.924;2023-08-08T02:56:00;15.2;75.6
9666;DHT22;4871;52.004;5.924;2023-08-08T02:57:00;15.2;75.4
9666;DHT22;4871;52.004;5.924;2023-08-08T02:58:00;15.2;75.6
9666;DHT22;4871;52.004;5.924;2023-08-08T02:59:00;15.2;75.4
9666;DHT22;4871;52.004;5.924;2023-08-08T03:00:00;15.2;75.7
9666;DHT22;4871;52.004;5.924;2023-08-08T03:01:00;15.2;75.5
9666;DHT22;4871;52.004;5.924;2023-08-08T03:02:00;15.2;75.5
9666;DHT22;4871;52.004;5.924;2023-08-08T03:03:00;15.2;75.2
9666;DHT22;4871;52.004;5.924;2023-08-08T03:04:00;15.2;75.4
9666;DHT22;4871;52.004;5.924;2023-08-08T03:05:00;15.2;75.7
9666;DHT22;4871;52.004;5.924;2023-08-08T03:06:00;15.2;75.4
9666;DHT22;4871;52.004;5.924;2023-08-08T03:07:04;15.2;75.7
9666;DHT22;4871;52.004;5.924;2023-08-08T03:08:00;15.2;75.7
9666;DHT22;4871;52.004;5.924;2023-08-08T03:09:00;15.2;75.6
9666;DHT22;4871;52.004;5.924;2023-08-08T03:10:00;15.2;75.6
9666;DHT22;4871;52.004;5.924;2023-08-08T03:11:00;15.2;75.6
9666;DHT22;4871;52.004;5.924;2023-08-08T03:12:07;15.2;75.8
9666;DHT22;4871;52.004;5.924;2023-08-08T03:13:00;15.2;75.8
9666;DHT22;4871;52.004;5.924;2023-08-08T03:14:00;15.1;75.8
9666;DHT22;4871;52.004;5.924;2023-08-08T03:15:00;15.1;75.7
9666;DHT22;4871;52.004;5.924;2023-08-08T03:16:00;15.1;75.7
9666;DHT22;4871;52.004;5.924;2023-08-08T03:17:00;15.1;75.6
9666;DHT22;4871;52.004;5.924;2023-08-08T03:18:00;15.1;75.7
9666;DHT22;4871;52.004;5.924;2023-08-08T03:19:00;15.2;75.7
9666;DHT22;4871;52.004;5.924;2023-08-08T03:20:00;15.1;75.6
9666;DHT22;4871;52.004;5.924;2023-08-08T03:21:00;15.1;75.8
9666;DHT22;4871;52.004;5.924;2023-08-08T03:22:00;15.1;75.7
9666;DHT22;4871;52.004;5.924;2023-08-08T03:23:00;15.1;75.8
9666;DHT22;4871;52.004;5.924;2023-08-08T03:24:00;15.1;75.9
9666;DHT22;4871;52.004;5.924;2023-08-08T03:25:00;15.1;75.8
9666;DHT22;4871;52.004;5.924;2023-08-08T03:26:00;15.1;75.8
9666;DHT22;4871;52.004;5.924;2023-08-08T03:27:00;15.1;75.9
9666;DHT22;4871;52.004;5.924;2023-08-08T03:28:00;15.1;75.7
9666;DHT22;4871;52.004;5.924;2023-08-08T03:29:00;15.1;75.8
9666;DHT22;4871;52.004;5.924;2023-08-08T03:30:00;15.1;75.8
9666;DHT22;4871;52.004;5.924;2023-08-08T03:31:00;15.1;76.1
9666;DHT22;4871;52.004;5.924;2023-08-08T03:32:00;15.1;76.3
9666;DHT22;4871;52.004;5.924;2023-08-08T03:33:00;15.1;76.1
9666;DHT22;4871;52.004;5.924;2023-08-08T03:34:00;15.1;75.9
9666;DHT22;4871;52.004;5.924;2023-08-08T03:35:00;15.1;75.9
9666;DHT22;4871;52.004;5.924;2023-08-08T03:36:00;15.1;76.0
9666;DHT22;4871;52.004;5.924;2023-08-08T03:37:00;15.1;75.8
9666;DHT22;4871;52.004;5.924;2023-08-08T03:38:00;15.1;76.1
9666;DHT22;4871;52.004;5.924;2023-08-08T03:39:00;15.1;75.9
9666;DHT22;4871;52.004;5.924;2023-08-08T03:40:00;15.1;76.0
9666;DHT22;4871;52.004;5.924;2023-08-08T03:41:00;15.1;75.9
9666;DHT22;4871;52.004;5.924;2023-08-08T03:42:00;15.1;75.5
9666;DHT22;4871;52.004;5.924;2023-08-08T03:43:00;15.1;75.8
9666;DHT22;4871;52.004;5.924;2023-08-08T03:44:02;15.2;75.8
9666;DHT22;4871;52.004;5.924;2023-08-08T03:45:00;15.2;75.8
9666;DHT22;4871;52.004;5.924;2023-08-08T03:46:00;15.2;75.8
9666;DHT22;4871;52.004;5.924;2023-08-08T03:47:00;15.2;75.8
9666;DHT22;4871;52.004;5.924;2023-08-08T03:48:00;15.1;76.0
9666;DHT22;4871;52.004;5.924;2023-08-08T03:49:00;15.1;75.9
9666;DHT22;4871;52.004;5.924;2023-08-08T03:50:00;15.1;75.8
9666;DHT22;4871;52.004;5.924;2023-08-08T03:51:00;15.1;76.0
9666;DHT22;4871;52.004;5.924;2023-08-08T03:52:00;15.2;75.9
9666;DHT22;4871;52.004;5.924;2023-08-08T03:53:00;15.2;75.9
9666;DHT22;4871;52.004;5.924;2023-08-08T03:54:00;15.2;75.8
9666;DHT22;4871;52.004;5.924;2023-08-08T03:55:00;15.2;75.9
9666;DHT22;4871;52.004;5.924;2023-08-08T03:56:00;15.2;76.0
9666;DHT22;4871;52.004;5.924;2023-08-08T03:57:01;15.2;76.0
9666;DHT22;4871;52.004;5.924;2023-08-08T03:58:00;15.1;75.9
9666;DHT22;4871;52.004;5.924;2023-08-08T03:59:00;15.2;75.8
9666;DHT22;4871;52.004;5.924;2023-08-08T04:00:00;15.2;75.9
9666;DHT22;4871;52.004;5.924;2023-08-08T04:01:00;15.2;75.9
9666;DHT22;4871;52.004;5.924;2023-08-08T04:02:00;15.2;75.8
9666;DHT22;4871;52.004;5.924;2023-08-08T04:03:00;15.2;75.8
9666;DHT22;4871;52.004;5.924;2023-08-08T04:04:00;15.2;75.9
9666;DHT22;4871;52.004;5.924;2023-08-08T04:05:00;15.2;76.0
9666;DHT22;4871;52.004;5.924;2023-08-08T04:06:00;15.2;76.1
9666;DHT22;4871;52.004;5.924;2023-08-08T04:07:00;15.2;76.0
9666;DHT22;4871;52.004;5.924;2023-08-08T04:08:00;15.2;76.0
9666;DHT22;4871;52.004;5.924;2023-08-08T04:09:07;15.2;76.1
9666;DHT22;4871;52.004;5.924;2023-08-08T04:10:00;15.2;76.1
9666;DHT22;4871;52.004;5.924;2023-08-08T04:11:00;15.2;76.2
9666;DHT22;4871;52.004;5.924;2023-08-08T04:12:00;15.2;76.0
9666;DHT22;4871;52.004;5.924;2023-08-08T04:13:00;15.2;76.1
9666;DHT22;4871;52.004;5.924;2023-08-08T04:14:00;15.2;76.3
9666;DHT22;4871;52.004;5.924;2023-08-08T04:15:00;15.2;76.3
9666;DHT22;4871;52.004;5.924;2023-08-08T04:16:00;15.2;76.0
9666;DHT22;4871;52.004;5.924;2023-08-08T04:17:00;15.2;76.2
9666;DHT22;4871;52.004;5.924;2023-08-08T04:18:00;15.2;76.1
9666;DHT22;4871;52.004;5.924;2023-08-08T04:19:07;15.2;76.4
9666;DHT22;4871;52.004;5.924;2023-08-08T04:20:00;15.2;76.4
9666;DHT22;4871;52.004;5.924;2023-08-08T04:21:00;15.2;76.2
9666;DHT22;4871;52.004;5.924;2023-08-08T04:22:00;15.2;76.1
9666;DHT22;4871;52.004;5.924;2023-08-08T04:23:00;15.2;76.2
9666;DHT22;4871;52.004;5.924;2023-08-08T04:24:00;15.2;76.2
9666;DHT22;4871;52.004;5.924;2023-08-08T04:25:00;15.2;76.4
9666;DHT22;4871;52.004;5.924;2023-08-08T04:26:00;15.2;76.4
9666;DHT22;4871;52.004;5.924;2023-08-08T04:27:00;15.2;76.3
9666;DHT22;4871;52.004;5.924;2023-08-08T04:28:00;15.2;76.2
9666;DHT22;4871;52.004;5.924;2023-08-08T04:29:00;15.2;76.5
9666;DHT22;4871;52.004;5.924;2023-08-08T04:30:00;15.2;76.3
9666;DHT22;4871;52.004;5.924;2023-08-08T04:31:00;15.2;76.6
9666;DHT22;4871;52.004;5.924;2023-08-08T04:32:00;15.2;76.6
9666;DHT22;4871;52.004;5.924;2023-08-08T04:33:00;15.2;76.6
9666;DHT22;4871;52.004;5.924;2023-08-08T04:34:01;15.2;76.6
9666;DHT22;4871;52.004;5.924;2023-08-08T04:35:00;15.2;76.8
9666;DHT22;4871;52.004;5.924;2023-08-08T04:36:00;15.2;76.5
9666;DHT22;4871;52.004;5.924;2023-08-08T04:37:00;15.2;76.6
9666;DHT22;4871;52.004;5.924;2023-08-08T04:38:00;15.2;76.4
9666;DHT22;4871;52.004;5.924;2023-08-08T04:39:00;15.2;76.3
9666;DHT22;4871;52.004;5.924;2023-08-08T04:40:00;15.2;76.3
9666;DHT22;4871;52.004;5.924;2023-08-08T04:41:00;15.2;76.7
9666;DHT22;4871;52.004;5.924;2023-08-08T04:42:00;15.2;76.8
9666;DHT22;4871;52.004;5.924;2023-08-08T04:43:00;15.2;76.5
9666;DHT22;4871;52.004;5.924;2023-08-08T04:44:00;15.2;76.6
9666;DHT22;4871;52.004;5.924;2023-08-08T04:45:00;15.2;76.6
9666;DHT22;4871;52.004;5.924;2023-08-08T04:46:00;15.2;76.4
9666;DHT22;4871;52.004;5.924;2023-08-08T04:47:00;15.2;76.4
9666;DHT22;4871;52.004;5.924;2023-08-08T04:48:00;15.2;76.5
9666;DHT22;4871;52.004;5.924;2023-08-08T04:49:00;15.2;76.6
9666;DHT22;4871;52.004;5.924;2023-08-08T04:50:00;15.2;76.6
9666;DHT22;4871;52.004;5.924;2023-08-08T04:51:00;15.2;76.4
9666;DHT22;4871;52.004;5.924;2023-08-08T04:52:00;15.3;76.4
9666;DHT22;4871;52.004;5.924;2023-08-08T04:53:00;15.2;76.4
9666;DHT22;4871;52.004;5.924;2023-08-08T04:54:00;15.3;76.3
9666;DHT22;4871;52.004;5.924;2023-08-08T04:55:00;15.3;76.2
9666;DHT22;4871;52.004;5.924;2023-08-08T04:56:00;15.3;76.4
9666;DHT22;4871;52.004;5.924;2023-08-08T04:57:00;15.3;76.5
9666;DHT22;4871;52.004;5.924;2023-08-08T04:58:00;15.3;76.8
9666;DHT22;4871;52.004;5.924;2023-08-08T04:59:00;15.3;76.5
9666;DHT22;4871;52.004;5.924;2023-08-08T05:00:05;15.3;76.4
9666;DHT22;4871;52.004;5.924;2023-08-08T05:01:00;15.3;76.4
9666;DHT22;4871;52.004;5.924;2023-08-08T05:02:00;15.3;76.5
9666;DHT22;4871;52.004;5.924;2023-08-08T05:03:00;15.3;76.4
9666;DHT22;4871;52.004;5.924;2023-08-08T05:04:00;15.3;76.4
9666;DHT22;4871;52.004;5.924;2023-08-08T05:05:00;15.3;76.9
9666;DHT22;4871;52.004;5.924;2023-08-08T05:06:00;15.3;76.9
9666;DHT22;4871;52.004;5.924;2023-08-08T05:07:00;15.3;76.4
9666;DHT22;4871;52.004;5.924;2023-08-08T05:08:00;15.4;76.3
9666;DHT22;4871;52.004;5.924;2023-08-08T05:09:00;15.4;76.2
9666;DHT22;4871;52.004;5.924;2023-08-08T05:10:00;15.4;76.2
9666;DHT22;4871;52.004;5.924;2023-08-08T05:11:00;15.4;76.2
9666;DHT22;4871;52.004;5.924;2023-08-08T05:12:00;15.4;76.1
9666;DHT22;4871;52.004;5.924;2023-08-08T05:13:00;15.4;76.2
9666;DHT22;4871;52.004;5.924;2023-08-08T05:14:00;15.4;76.1
9666;DHT22;4871;52.004;5.924;2023-08-08T05:15:00;15.4;76.2
9666;DHT22;4871;52.004;5.924;2023-08-08T05:16:00;15.4;76.4
9666;DHT22;4871;52.004;5.924;2023-08-08T05:17:07;15.4;76.4
9666;DHT22;4871;52.004;5.924;2023-08-08T05:18:00;15.4;76.4
9666;DHT22;4871;52.004;5.924;2023-08-08T05:19:00;15.4;76.3
9666;DHT22;4871;52.004;5.924;2023-08-08T05:20:00;15.5;76.4
9666;DHT22;4871;52.004;5.924;2023-08-08T05:21:00;15.4;76.4
9666;DHT22;4871;52.004;5.924;2023-08-08T05:22:00;15.5;76.2
9666;DHT22;4871;52.004;5.924;2023-08-08T05:23:00;15.5;76.1
9666;DHT22;4871;52.004;5.924;2023-08-08T05:24:00;15.5;76.1
9666;DHT22;4871;52.004;5.924;2023-08-08T05:25:00;15.5;76.1
9666;DHT22;4871;52.004;5.924;2023-08-08T05:26:00;15.5;76.5
9666;DHT22;4871;52.004;5.924;2023-08-08T05:27:00;15.5;76.2
9666;DHT22;4871;52.004;5.924;2023-08-08T05:28:00;15.5;76.6
9666;DHT22;4871;52.004;5.924;2023-08-08T05:29:00;15.5;76.8
9666;DHT22;4871;52.004;5.924;2023-08-08T05:30:00;15.5;76.5
9666;DHT22;4871;52.004;5.924;2023-08-08T05:31:01;15.6;76.3
9666;DHT22;4871;52.004;5.924;2023-08-08T05:32:00;15.6;76.1
9666;DHT22;4871;52.004;5.924;2023-08-08T05:33:00;15.6;76.6
9666;DHT22;4871;52.004;5.924;2023-08-08T05:34:00;15.6;76.3
9666;DHT22;4871;52.004;5.924;2023-08-08T05:35:00;15.6;76.4
9666;DHT22;4871;52.004;5.924;2023-08-08T05:36:00;15.6;76.2
9666;DHT22;4871;52.004;5.924;2023-08-08T05:37:00;15.6;76.1
9666;DHT22;4871;52.004;5.924;2023-08-08T05:38:00;15.6;76.1
9666;DHT22;4871;52.004;5.924;2023-08-08T05:39:00;15.7;76.2
9666;DHT22;4871;52.004;5.924;2023-08-08T05:40:00;15.7;76.0
9666;DHT22;4871;52.004;5.924;2023-08-08T05:41:00;15.7;76.0
9666;DHT22;4871;52.004;5.924;2023-08-08T05:42:00;15.7;75.8
9666;DHT22;4871;52.004;5.924;2023-08-08T05:43:00;15.7;76.0
9666;DHT22;4871;52.004;5.924;2023-08-08T05:44:01;15.7;75.9
9666;DHT22;4871;52.004;5.924;2023-08-08T05:45:00;15.8;75.8
9666;DHT22;4871;52.004;5.924;2023-08-08T05:46:00;15.8;76.3
9666;DHT22;4871;52.004;5.924;2023-08-08T05:47:00;15.8;75.9
9666;DHT22;4871;52.004;5.924;2023-08-08T05:48:00;15.8;76.0
9666;DHT22;4871;52.004;5.924;2023-08-08T05:49:07;15.8;75.5
9666;DHT22;4871;52.004;5.924;2023-08-08T05:50:00;15.8;75.5
9666;DHT22;4871;52.004;5.924;2023-08-08T05:51:08;15.8;75.6
9666;DHT22;4871;52.004;5.924;2023-08-08T05:52:01;15.8;75.6
9666;DHT22;4871;52.004;5.924;2023-08-08T05:53:00;15.8;76.0
9666;DHT22;4871;52.004;5.924;2023-08-08T05:54:00;15.9;75.8
9666;DHT22;4871;52.004;5.924;2023-08-08T05:55:00;15.9;75.5
9666;DHT22;4871;52.004;5.924;2023-08-08T05:56:00;15.9;75.6
9666;DHT22;4871;52.004;5.924;2023-08-08T05:57:01;15.9;75.5
9666;DHT22;4871;52.004;5.924;2023-08-08T05:58:00;15.9;75.7
9666;DHT22;4871;52.004;5.924;2023-08-08T05:59:00;15.9;76.0
9666;DHT22;4871;52.004;5.924;2023-08-08T06:00:00;15.9;75.8
9666;DHT22;4871;52.004;5.924;2023-08-08T06:01:00;15.9;76.0
9666;DHT22;4871;52.004;5.924;2023-08-08T06:02:00;15.9;76.1
9666;DHT22;4871;52.004;5.924;2023-08-08T06:03:00;16.0;75.6
9666;DHT22;4871;52.004;5.924;2023-08-08T06:04:00;15.9;75.7
9666;DHT22;4871;52.004;5.924;2023-08-08T06:05:00;16.0;76.1
9666;DHT22;4871;52.004;5.924;2023-08-08T06:06:00;16.0;76.1
9666;DHT22;4871;52.004;5.924;2023-08-08T06:07:00;16.0;75.9
9666;DHT22;4871;52.004;5.924;2023-08-08T06:08:00;16.0;76.2
9666;DHT22;4871;52.004;5.924;2023-08-08T06:09:00;16.0;75.6
9666;DHT22;4871;52.004;5.924;2023-08-08T06:10:00;16.0;76.0
9666;DHT22;4871;52.004;5.924;2023-08-08T06:11:00;16.1;76.2
9666;DHT22;4871;52.004;5.924;2023-08-08T06:12:00;16.1;76.5
9666;DHT22;4871;52.004;5.924;2023-08-08T06:13:00;16.1;75.7
9666;DHT22;4871;52.004;5.924;2023-08-08T06:14:00;16.1;75.9
9666;DHT22;4871;52.004;5.924;2023-08-08T06:15:00;16.1;75.5
9666;DHT22;4871;52.004;5.924;2023-08-08T06:16:01;16.1;75.6
9666;DHT22;4871;52.004;5.924;2023-08-08T06:17:00;16.1;75.8
9666;DHT22;4871;52.004;5.924;2023-08-08T06:18:00;16.1;75.7
9666;DHT22;4871;52.004;5.924;2023-08-08T06:19:00;16.2;75.9
9666;DHT22;4871;52.004;5.924;2023-08-08T06:20:00;16.2;75.9
9666;DHT22;4871;52.004;5.924;2023-08-08T06:21:00;16.3;76.4
9666;DHT22;4871;52.004;5.924;2023-08-08T06:22:00;16.3;78.3
9666;DHT22;4871;52.004;5.924;2023-08-08T06:23:00;16.2;76.9
9666;DHT22;4871;52.004;5.924;2023-08-08T06:24:00;16.3;77.0
9666;DHT22;4871;52.004;5.924;2023-08-08T06:25:00;16.3;76.1
9666;DHT22;4871;52.004;5.924;2023-08-08T06:26:00;16.4;75.3
9666;DHT22;4871;52.004;5.924;2023-08-08T06:27:07;16.3;75.4
9666;DHT22;4871;52.004;5.924;2023-08-08T06:28:00;16.3;75.4
9666;DHT22;4871;52.004;5.924;2023-08-08T06:29:00;16.3;75.8
9666;DHT22;4871;52.004;5.924;2023-08-08T06:30:00;16.3;75.8
9666;DHT22;4871;52.004;5.924;2023-08-08T06:31:00;16.4;77.3
9666;DHT22;4871;52.004;5.924;2023-08-08T06:32:00;16.4;75.3
9666;DHT22;4871;52.004;5.924;2023-08-08T06:33:00;16.4;75.8
9666;DHT22;4871;52.004;5.924;2023-08-08T06:34:00;16.4;76.0
9666;DHT22;4871;52.004;5.924;2023-08-08T06:35:00;16.4;75.6
9666;DHT22;4871;52.004;5.924;2023-08-08T06:36:01;16.4;75.4
9666;DHT22;4871;52.004;5.924;2023-08-08T06:37:00;16.4;75.4
9666;DHT22;4871;52.004;5.924;2023-08-08T06:38:00;16.4;76.5
9666;DHT22;4871;52.004;5.924;2023-08-08T06:39:00;16.5;76.0
9666;DHT22;4871;52.004;5.924;2023-08-08T06:40:00;16.5;75.3
9666;DHT22;4871;52.004;5.924;2023-08-08T06:41:00;16.6;76.7
9666;DHT22;4871;52.004;5.924;2023-08-08T06:42:00;16.7;75.2
9666;DHT22;4871;52.004;5.924;2023-08-08T06:43:00;16.9;75.7
9666;DHT22;4871;52.004;5.924;2023-08-08T06:44:00;17.0;75.1